Pagina principale
METAR-TAF:

METAR-TAF

Aeroporti :

Whale Cove, Nunavut, Canada

latitudine: 62-14N, longitudine: 092-36W, altezza: 20 m

Osservazione

Il bollettino è stato emesso 15 ore e 45 minuti fa, alle 20:00 UTC
Vento 9 kt da est/nord-est
Temperature 8°C
Umidità 49%
Pressione 1015 hPa
Visibilità: 24.1 km
Nuvoloso ad un'altezza di 13000 ft

METAR: CYXN 262000Z 07009KT 15SM BKN130 08/M02 A2998 RMK AS6 LAST STFD OB/NXT 271200Z SLP154

Ora: 06:45 (11:45 UTC)


TAF: mancante

Osservazioni e previsioni meteorologiche di più di 4000 aeroporti (messaggi METAR e TAF).

Le stazioni disponibili sono rappresentate dai dischi gialli e rossi sulla carta.

Puntare il mouse per vedere il nome della stazione.

Clicca sopra per visualizzare le osservazioni e previsioni meteorologiche.

Per cambiare la mappa : fare clic sui pulsanti verdi con una croce nera per ingrandire, il pulsante verde con un trattino per diminuire, o sulla freccia verde per le mappe adiacenti.


METAR-TAF: